createdAt,value
2023-03-24T00:00:49.604Z,12.50
2023-03-24T00:03:17.954Z,14.00
2023-03-24T00:05:44.821Z,14.13
2023-03-24T00:08:53.502Z,14.30
2023-03-24T00:11:59.628Z,14.85
2023-03-24T00:14:26.316Z,16.02
2023-03-24T00:16:54.745Z,13.18
2023-03-24T00:19:22.630Z,14.07
2023-03-24T00:21:56.095Z,15.95
2023-03-24T00:24:23.060Z,16.12
2023-03-24T00:26:51.717Z,14.63
2023-03-24T00:29:19.133Z,15.35
2023-03-24T00:31:45.950Z,17.02
2023-03-24T00:34:13.534Z,14.93
2023-03-24T00:37:00.565Z,17.40
2023-03-24T00:39:52.273Z,18.67
2023-03-24T00:42:33.894Z,17.83
2023-03-24T00:45:00.511Z,16.92
2023-03-24T00:47:27.115Z,18.23
2023-03-24T00:49:54.421Z,14.35
2023-03-24T00:52:25.017Z,18.45
2023-03-24T00:54:58.260Z,17.05
2023-03-24T00:57:26.177Z,18.12
2023-03-24T00:59:54.503Z,16.90
2023-03-24T01:02:24.739Z,17.45
2023-03-24T01:04:56.566Z,17.27
2023-03-24T01:07:26.015Z,18.55
2023-03-24T01:09:57.660Z,20.05
2023-03-24T01:12:50.481Z,15.48
2023-03-24T01:15:33.800Z,19.02
2023-03-24T01:18:03.602Z,19.52
2023-03-24T01:20:34.263Z,19.20
2023-03-24T01:23:05.078Z,19.65
2023-03-24T01:25:32.336Z,17.90
2023-03-24T01:27:59.276Z,17.35
2023-03-24T01:33:01.186Z,22.45
2023-03-24T01:35:29.506Z,18.50
2023-03-24T01:37:56.634Z,17.45
2023-03-24T01:40:26.907Z,18.30
2023-03-24T01:42:53.647Z,19.73
2023-03-24T01:46:16.814Z,19.48
2023-03-24T01:49:08.561Z,15.90
2023-03-24T01:51:42.326Z,21.08
2023-03-24T01:54:16.613Z,15.90
2023-03-24T01:56:48.613Z,18.87
2023-03-24T01:59:21.408Z,19.10
2023-03-24T02:01:48.092Z,18.45
2023-03-24T02:04:15.360Z,19.83
2023-03-24T02:06:44.680Z,20.05
2023-03-24T02:09:13.575Z,18.35
2023-03-24T02:11:41.762Z,19.12
2023-03-24T02:14:09.264Z,18.52
2023-03-24T02:17:37.564Z,18.98
2023-03-24T02:20:41.823Z,20.27
2023-03-24T02:23:36.301Z,18.83
2023-03-24T02:26:28.339Z,18.65
2023-03-24T02:29:03.934Z,18.62
2023-03-24T02:32:25.518Z,20.42
2023-03-24T02:35:37.449Z,22.58
2023-03-24T02:38:43.778Z,20.45
2023-03-24T02:41:22.199Z,18.70
2023-03-24T02:44:26.326Z,18.90
2023-03-24T02:47:56.170Z,19.48
2023-03-24T02:50:54.631Z,18.55
2023-03-24T02:53:49.835Z,20.10
2023-03-24T02:56:34.824Z,19.27
2023-03-24T02:59:16.133Z,22.30
2023-03-24T03:01:54.567Z,20.83
2023-03-24T03:04:50.081Z,21.65
2023-03-24T03:07:22.044Z,20.23
2023-03-24T03:10:15.494Z,21.10
2023-03-24T03:15:16.906Z,20.48
2023-03-24T03:17:53.326Z,24.67
2023-03-24T03:20:23.279Z,20.50
2023-03-24T03:23:00.838Z,20.23
2023-03-24T03:25:33.369Z,22.85
2023-03-24T03:28:04.825Z,21.02
2023-03-24T03:30:40.194Z,19.30
2023-03-24T03:33:13.916Z,21.45
2023-03-24T03:36:34.410Z,23.70
2023-03-24T03:39:11.577Z,21.12
2023-03-24T03:41:38.994Z,22.40
2023-03-24T03:44:05.842Z,23.12
2023-03-24T03:46:32.689Z,21.33
2023-03-24T03:48:59.322Z,21.83
2023-03-24T03:51:26.444Z,22.77
2023-03-24T03:56:54.073Z,25.42
2023-03-24T03:59:30.416Z,24.35
2023-03-24T04:01:57.279Z,24.15
2023-03-24T04:04:38.115Z,22.98
2023-03-24T04:07:24.175Z,26.17
2023-03-24T04:18:31.660Z,23.05
2023-03-24T04:21:20.015Z,30.30
2023-03-24T04:24:06.335Z,25.27
2023-03-24T04:26:41.350Z,23.25
2023-03-24T04:29:33.417Z,26.83
2023-03-24T04:32:26.834Z,22.70
2023-03-24T04:35:01.861Z,24.15
2023-03-24T04:37:33.497Z,23.45
2023-03-24T04:40:06.139Z,23.55
2023-03-24T04:42:37.720Z,22.87
2023-03-24T04:45:06.826Z,23.08
2023-03-24T04:47:43.266Z,24.12
2023-03-24T04:50:11.988Z,25.85
2023-03-24T04:52:40.007Z,26.73
2023-03-24T04:55:19.482Z,24.20
2023-03-24T04:57:46.044Z,24.30
2023-03-24T05:00:13.434Z,26.25
2023-03-24T05:02:45.306Z,25.55
2023-03-24T05:05:12.467Z,24.77
2023-03-24T05:07:39.052Z,28.85
2023-03-24T05:10:06.541Z,33.15
2023-03-24T05:12:33.082Z,30.80
2023-03-24T05:15:06.966Z,29.27
2023-03-24T05:17:38.022Z,26.25
2023-03-24T05:20:10.902Z,27.98
2023-03-24T05:22:38.808Z,28.52
2023-03-24T05:25:06.317Z,24.45
2023-03-24T05:27:32.903Z,25.30
2023-03-24T05:30:06.454Z,28.30
2023-03-24T05:32:33.062Z,25.62
2023-03-24T05:34:59.662Z,25.48
2023-03-24T05:37:27.458Z,24.20
2023-03-24T05:39:55.962Z,26.75
2023-03-24T05:42:23.128Z,24.75
2023-03-24T05:44:49.690Z,23.65
2023-03-24T05:47:16.449Z,25.73
2023-03-24T05:49:43.512Z,26.00
2023-03-24T05:52:11.159Z,26.27
2023-03-24T05:54:39.536Z,23.20
2023-03-24T05:57:09.926Z,22.83
2023-03-24T05:59:38.061Z,22.87
2023-03-24T06:02:05.311Z,24.23
2023-03-24T06:04:31.947Z,21.87
2023-03-24T06:06:59.152Z,21.58
2023-03-24T06:09:32.764Z,24.30
2023-03-24T06:12:00.155Z,22.75
2023-03-24T06:14:26.689Z,21.00
2023-03-24T06:16:53.662Z,22.23
2023-03-24T06:19:24.710Z,22.00
2023-03-24T06:21:51.344Z,20.52
2023-03-24T06:24:18.161Z,19.67
2023-03-24T06:26:44.726Z,21.50
2023-03-24T06:29:18.246Z,22.90
2023-03-24T06:31:46.229Z,19.75
2023-03-24T06:34:12.777Z,20.10
2023-03-24T06:36:39.446Z,20.88
2023-03-24T06:39:06.498Z,19.52
2023-03-24T06:41:33.251Z,21.90
2023-03-24T06:43:59.975Z,19.75
2023-03-24T06:46:26.564Z,18.80
2023-03-24T06:48:53.197Z,17.80
2023-03-24T06:51:19.956Z,27.27
2023-03-24T06:53:46.866Z,20.40
2023-03-24T06:56:18.254Z,21.05
2023-03-24T06:58:45.031Z,21.37
2023-03-24T07:01:12.199Z,21.70
2023-03-24T07:03:39.528Z,22.27
2023-03-24T07:06:07.521Z,23.90
2023-03-24T07:08:38.572Z,22.52
2023-03-24T07:11:21.269Z,24.23
2023-03-24T07:13:56.624Z,23.02
2023-03-24T07:16:23.327Z,22.42
2023-03-24T07:18:49.948Z,20.62
2023-03-24T07:21:16.598Z,23.65
2023-03-24T07:23:43.138Z,23.50
2023-03-24T07:26:09.740Z,23.80
2023-03-24T07:28:36.861Z,25.75
2023-03-24T07:31:05.089Z,21.92
2023-03-24T07:33:32.353Z,21.35
2023-03-24T07:35:59.734Z,22.02
2023-03-24T07:38:29.280Z,21.98
2023-03-24T07:40:58.504Z,20.67
2023-03-24T07:43:34.111Z,24.52
2023-03-24T07:46:01.867Z,22.87
2023-03-24T07:48:28.658Z,22.27
2023-03-24T07:50:55.273Z,21.55
2023-03-24T07:53:22.000Z,21.20
2023-03-24T07:55:48.913Z,23.50
2023-03-24T07:58:16.341Z,19.95
2023-03-24T08:00:43.195Z,19.77
2023-03-24T08:03:14.506Z,17.10
2023-03-24T08:05:42.087Z,19.65
2023-03-24T08:08:09.215Z,19.58
2023-03-24T08:10:35.964Z,17.10
2023-03-24T08:13:02.739Z,19.27
2023-03-24T08:15:29.979Z,17.67
2023-03-24T08:17:57.294Z,18.48
2023-03-24T08:20:27.122Z,16.40
2023-03-24T08:22:54.677Z,20.33
2023-03-24T08:25:24.525Z,19.90
2023-03-24T08:27:51.774Z,21.33
2023-03-24T08:30:25.588Z,17.83
2023-03-24T08:32:58.244Z,15.13
2023-03-24T08:35:31.580Z,15.13
2023-03-24T08:37:59.586Z,17.48
2023-03-24T08:40:27.579Z,16.02
2023-03-24T08:42:57.801Z,15.93
2023-03-24T08:45:48.735Z,17.48
2023-03-24T08:48:23.004Z,16.02
2023-03-24T08:50:49.548Z,14.57
2023-03-24T08:53:16.264Z,15.80
2023-03-24T08:55:44.708Z,14.20
2023-03-24T08:58:16.482Z,13.10
2023-03-24T09:00:44.423Z,10.93
2023-03-24T09:03:18.615Z,13.32
2023-03-24T09:05:47.670Z,11.07
2023-03-24T09:08:16.539Z,12.57
2023-03-24T09:10:46.953Z,11.15
2023-03-24T09:13:14.451Z,13.23
2023-03-24T09:15:47.712Z,14.98
2023-03-24T09:21:10.315Z,15.90
2023-03-24T09:23:36.908Z,16.87
2023-03-24T09:26:04.936Z,13.13
2023-03-24T09:28:31.581Z,16.77
2023-03-24T09:31:04.393Z,14.15
2023-03-24T09:36:13.260Z,15.32
2023-03-24T09:38:58.404Z,16.75
2023-03-24T09:41:29.415Z,13.35
2023-03-24T09:44:31.387Z,13.07
2023-03-24T09:47:05.966Z,14.30
2023-03-24T09:49:37.401Z,14.18
2023-03-24T09:52:06.489Z,13.95
2023-03-24T09:54:48.123Z,13.65
2023-03-24T09:57:24.283Z,16.67
2023-03-24T09:59:51.084Z,16.15
2023-03-24T10:02:20.691Z,13.23
2023-03-24T10:04:48.426Z,13.73
2023-03-24T10:07:34.947Z,14.40
2023-03-24T10:10:01.600Z,10.27
2023-03-24T10:12:38.829Z,13.18
2023-03-24T10:15:37.290Z,11.50
2023-03-24T10:18:26.097Z,11.20
2023-03-24T10:21:22.651Z,9.93
2023-03-24T10:24:38.379Z,8.15
2023-03-24T10:27:22.973Z,10.63
2023-03-24T10:29:57.720Z,9.25
2023-03-24T10:32:29.525Z,11.12
2023-03-24T10:35:07.720Z,10.17
2023-03-24T10:37:34.554Z,8.90
2023-03-24T10:40:01.628Z,8.27
2023-03-24T10:42:34.402Z,10.02
2023-03-24T10:47:32.973Z,9.48
2023-03-24T10:50:11.944Z,11.43
2023-03-24T10:52:45.370Z,10.52
2023-03-24T10:55:19.066Z,8.77
2023-03-24T10:57:49.914Z,9.98
2023-03-24T11:00:26.836Z,10.88
2023-03-24T11:03:04.097Z,11.52
2023-03-24T11:05:33.755Z,8.50
2023-03-24T11:11:14.191Z,8.32
2023-03-24T11:13:41.085Z,7.95
2023-03-24T11:16:17.076Z,8.35
2023-03-24T11:18:57.289Z,9.73
2023-03-24T11:21:24.400Z,8.82
2023-03-24T11:24:34.907Z,8.10
2023-03-24T11:27:35.743Z,8.02
2023-03-24T11:30:15.692Z,8.93
2023-03-24T11:32:48.136Z,7.30
2023-03-24T11:35:18.595Z,6.05
2023-03-24T11:37:46.330Z,8.23
2023-03-24T11:40:12.889Z,7.60
2023-03-24T11:42:52.788Z,8.70
2023-03-24T11:45:32.957Z,8.88
2023-03-24T11:48:01.927Z,5.78
2023-03-24T11:50:38.291Z,7.28
2023-03-24T11:53:46.060Z,6.50
2023-03-24T11:56:46.745Z,4.10
2023-03-24T11:59:19.076Z,5.70
2023-03-24T12:01:56.535Z,3.45
2023-03-24T12:04:36.569Z,3.85
2023-03-24T12:07:13.044Z,5.53
2023-03-24T12:09:53.860Z,5.05
2023-03-24T12:15:40.161Z,5.47
2023-03-24T12:18:09.664Z,2.70
2023-03-24T12:20:54.029Z,3.12
2023-03-24T12:23:34.019Z,4.00
2023-03-24T12:26:08.613Z,2.67
2023-03-24T12:28:48.645Z,6.15
2023-03-24T12:31:37.636Z,3.35
2023-03-24T12:34:29.292Z,4.53
2023-03-24T12:37:01.957Z,4.00
2023-03-24T12:39:35.623Z,2.65
2023-03-24T12:42:12.715Z,6.12
2023-03-24T12:45:11.332Z,3.42
2023-03-24T12:48:11.877Z,2.40
2023-03-24T12:51:29.793Z,2.70
2023-03-24T12:54:28.019Z,4.28
2023-03-24T12:57:04.104Z,3.00
2023-03-24T12:59:42.555Z,2.40
2023-03-24T13:05:09.132Z,7.03
2023-03-24T13:07:43.937Z,2.67
2023-03-24T13:10:30.580Z,3.80
2023-03-24T13:16:54.563Z,3.00
2023-03-24T13:19:24.160Z,4.10
2023-03-24T13:21:54.679Z,5.72
2023-03-24T13:24:22.560Z,3.33
2023-03-24T13:27:07.551Z,3.75
2023-03-24T13:30:05.405Z,3.60
2023-03-24T13:33:05.074Z,5.15
2023-03-24T13:48:52.316Z,2.45
2023-03-24T13:51:21.851Z,3.65
2023-03-24T13:53:56.810Z,2.53
2023-03-24T13:56:34.203Z,5.72
2023-03-24T13:59:22.849Z,2.65
2023-03-24T14:02:09.360Z,3.37
2023-03-24T14:05:04.618Z,2.67
2023-03-24T14:08:09.436Z,4.10
2023-03-24T14:10:50.414Z,3.33
2023-03-24T14:13:16.935Z,4.50
2023-03-24T14:15:49.709Z,3.33
2023-03-24T14:18:19.507Z,2.40
2023-03-24T14:20:58.334Z,3.83
2023-03-24T14:23:35.808Z,5.50
2023-03-24T14:26:02.404Z,3.75
2023-03-24T14:28:32.770Z,7.80
2023-03-24T14:31:10.196Z,5.55
2023-03-24T14:33:37.951Z,6.22
2023-03-24T14:36:06.731Z,3.17
2023-03-24T14:38:41.284Z,3.12
2023-03-24T14:41:16.495Z,4.87
2023-03-24T14:44:03.252Z,3.12
2023-03-24T14:46:42.558Z,7.05
2023-03-24T14:52:13.171Z,4.32
2023-03-24T14:54:50.385Z,4.95
2023-03-24T14:57:20.558Z,3.85
2023-03-24T15:02:48.875Z,4.05
2023-03-24T15:05:26.389Z,9.23
2023-03-24T15:10:36.590Z,2.80
2023-03-24T15:13:03.502Z,4.30
2023-03-24T15:15:30.685Z,2.97
2023-03-24T15:17:57.467Z,6.37
2023-03-24T15:20:27.244Z,3.20
2023-03-24T15:22:55.109Z,3.05
2023-03-24T15:25:28.840Z,6.80
2023-03-24T15:27:57.865Z,5.93
2023-03-24T15:42:15.932Z,5.55
2023-03-24T15:44:43.426Z,11.95
2023-03-24T15:47:21.088Z,4.25
2023-03-24T15:49:50.277Z,4.75
2023-03-24T15:52:36.287Z,3.62
2023-03-24T15:55:24.158Z,9.90
2023-03-24T15:57:51.100Z,5.53
2023-03-24T16:00:24.193Z,7.10
2023-03-24T16:02:53.706Z,12.18
2023-03-24T16:05:34.404Z,3.50
2023-03-24T16:08:06.949Z,4.25
2023-03-24T16:10:42.700Z,4.87
2023-03-24T16:13:18.662Z,3.30
2023-03-24T16:15:49.066Z,4.87
2023-03-24T16:18:19.973Z,6.87
2023-03-24T16:20:47.127Z,3.45
2023-03-24T16:23:14.047Z,4.05
2023-03-24T16:25:41.535Z,6.62
2023-03-24T16:28:13.885Z,6.90
2023-03-24T16:30:42.761Z,11.02
2023-03-24T16:33:09.786Z,12.37
2023-03-24T16:35:36.651Z,21.33
2023-03-24T16:38:03.221Z,15.15
2023-03-24T16:40:46.773Z,14.35
2023-03-24T16:43:13.514Z,17.52
2023-03-24T16:45:40.080Z,12.82
2023-03-24T16:48:07.074Z,11.52
2023-03-24T16:50:38.507Z,38.88
2023-03-24T16:53:05.838Z,32.05
2023-03-24T16:55:32.602Z,33.20
2023-03-24T16:57:59.227Z,31.45
2023-03-24T17:00:29.907Z,19.20
2023-03-24T17:03:00.023Z,11.73
2023-03-24T17:05:29.592Z,15.65
2023-03-24T17:07:57.381Z,18.87
2023-03-24T17:10:25.737Z,11.73
2023-03-24T17:12:55.445Z,13.50
2023-03-24T17:15:29.406Z,9.48
2023-03-24T17:17:56.550Z,11.12
2023-03-24T17:20:24.420Z,11.73
2023-03-24T17:22:53.811Z,9.63
2023-03-24T17:25:22.822Z,12.75
2023-03-24T17:27:52.440Z,9.73
2023-03-24T17:30:21.577Z,10.43
2023-03-24T17:32:48.884Z,10.50
2023-03-24T17:35:19.060Z,13.07
2023-03-24T17:37:46.190Z,10.93
2023-03-24T17:40:14.397Z,12.50
2023-03-24T17:42:45.774Z,11.00
2023-03-24T17:45:16.026Z,13.45
2023-03-24T17:47:43.008Z,16.70
2023-03-24T17:50:11.147Z,12.68
2023-03-24T17:52:40.440Z,13.30
2023-03-24T17:55:07.579Z,12.63
2023-03-24T17:57:34.311Z,10.80
2023-03-24T18:00:01.640Z,14.68
2023-03-24T18:02:28.259Z,16.70
2023-03-24T18:04:55.188Z,12.95
2023-03-24T18:07:23.024Z,15.07
2023-03-24T18:09:49.779Z,10.27
2023-03-24T18:12:16.714Z,12.35
2023-03-24T18:14:44.731Z,10.93
2023-03-24T18:17:13.540Z,11.95
2023-03-24T18:19:40.350Z,10.65
2023-03-24T18:22:07.377Z,12.00
2023-03-24T18:24:34.193Z,13.07
2023-03-24T18:27:01.289Z,10.57
2023-03-24T18:29:27.989Z,11.38
2023-03-24T18:31:54.628Z,12.57
2023-03-24T18:34:22.847Z,11.25
2023-03-24T18:36:52.937Z,10.40
2023-03-24T18:39:19.549Z,10.85
2023-03-24T18:41:48.066Z,13.13
2023-03-24T18:44:15.732Z,14.98
2023-03-24T18:46:43.258Z,11.73
2023-03-24T18:49:14.382Z,12.27
2023-03-24T18:51:41.999Z,12.98
2023-03-24T18:54:10.372Z,12.32
2023-03-24T18:56:37.104Z,13.57
2023-03-24T18:59:04.281Z,12.45
2023-03-24T19:01:32.941Z,13.35
2023-03-24T19:03:59.996Z,10.75
2023-03-24T19:06:31.193Z,11.75
2023-03-24T19:08:59.368Z,12.55
2023-03-24T19:11:26.686Z,14.18
2023-03-24T19:13:56.470Z,13.93
2023-03-24T19:19:27.753Z,12.95
2023-03-24T19:21:54.271Z,21.45
2023-03-24T19:24:20.927Z,15.98
2023-03-24T19:26:56.699Z,17.42
2023-03-24T19:29:23.516Z,17.00
2023-03-24T19:32:02.361Z,14.25
2023-03-24T19:34:28.917Z,17.05
2023-03-24T19:36:56.700Z,16.10
2023-03-24T19:39:26.334Z,16.25
2023-03-24T19:41:53.211Z,22.45
2023-03-24T19:44:19.748Z,21.05
2023-03-24T19:46:46.398Z,17.23
2023-03-24T19:49:13.196Z,14.55
2023-03-24T19:51:39.803Z,15.57
2023-03-24T19:54:06.426Z,14.70
2023-03-24T19:56:33.235Z,15.02
2023-03-24T19:58:59.783Z,19.80
2023-03-24T20:01:26.363Z,16.52
2023-03-24T20:03:53.263Z,13.70
2023-03-24T20:06:20.074Z,16.70
2023-03-24T20:08:46.642Z,19.15
2023-03-24T20:11:13.272Z,16.58
2023-03-24T20:13:39.882Z,18.30
2023-03-24T20:18:41.709Z,19.55
2023-03-24T20:21:09.244Z,26.40
2023-03-24T20:23:35.911Z,23.15
2023-03-24T20:26:02.480Z,21.95
2023-03-24T20:28:29.125Z,28.08
2023-03-24T20:31:03.476Z,24.40
2023-03-24T20:36:48.934Z,20.45
2023-03-24T20:39:15.982Z,22.30
2023-03-24T20:41:42.566Z,17.25
2023-03-24T20:44:09.222Z,14.55
2023-03-24T20:46:35.877Z,12.13
2023-03-24T20:49:02.725Z,13.23
2023-03-24T20:51:45.655Z,11.20
2023-03-24T20:54:12.462Z,9.30
2023-03-24T20:56:39.061Z,8.45
2023-03-24T20:59:06.999Z,12.63
2023-03-24T21:05:10.708Z,10.52
2023-03-24T21:07:43.941Z,12.93
2023-03-24T21:10:11.268Z,13.48
2023-03-24T21:12:54.295Z,14.25
2023-03-24T21:15:22.908Z,10.38
2023-03-24T21:17:49.711Z,14.02
2023-03-24T21:20:16.832Z,11.95
2023-03-24T21:22:56.207Z,9.13
2023-03-24T21:25:28.302Z,10.90
2023-03-24T21:27:55.752Z,12.87
2023-03-24T21:30:23.777Z,15.15
2023-03-24T21:32:52.297Z,13.65
2023-03-24T21:35:20.086Z,12.07
2023-03-24T21:37:47.720Z,13.23
2023-03-24T21:40:18.356Z,16.92
2023-03-24T21:42:46.767Z,18.50
2023-03-24T21:45:18.628Z,15.75
2023-03-24T21:47:47.990Z,13.57
2023-03-24T21:50:19.118Z,11.90
2023-03-24T21:52:47.763Z,14.70
2023-03-24T21:55:16.177Z,12.68
2023-03-24T21:57:44.608Z,13.07
2023-03-24T22:00:15.035Z,11.68
2023-03-24T22:02:45.576Z,11.68
2023-03-24T22:05:13.949Z,12.75
2023-03-24T22:07:42.010Z,15.52
2023-03-24T22:10:10.194Z,10.93
2023-03-24T22:12:36.790Z,11.70
2023-03-24T22:15:03.746Z,8.23
2023-03-24T22:17:42.938Z,8.98
2023-03-24T22:22:44.872Z,6.95
2023-03-24T22:25:15.408Z,6.35
2023-03-24T22:27:42.134Z,5.05
2023-03-24T22:30:11.324Z,5.00
2023-03-24T22:32:38.055Z,5.95
2023-03-24T22:35:05.591Z,4.78
2023-03-24T22:37:32.991Z,4.80
2023-03-24T22:39:59.697Z,4.37
2023-03-24T22:42:26.327Z,3.33
2023-03-24T22:44:52.893Z,4.25
2023-03-24T22:47:19.446Z,2.37
2023-03-24T22:49:46.058Z,5.05
2023-03-24T23:13:12.495Z,2.53
2023-03-24T23:15:40.038Z,2.47
2023-03-24T23:18:06.801Z,1.45
2023-03-24T23:20:33.451Z,1.95
2023-03-24T23:23:01.389Z,1.92
2023-03-24T23:25:31.163Z,2.30
2023-03-24T23:27:58.402Z,2.70
2023-03-24T23:30:25.141Z,2.03
2023-03-24T23:32:51.879Z,1.58
2023-03-24T23:35:18.760Z,1.33
2023-03-24T23:37:45.624Z,1.00
2023-03-24T23:40:14.910Z,1.52
2023-03-24T23:42:46.632Z,1.58
2023-03-24T23:45:18.075Z,1.50
2023-03-24T23:47:49.939Z,1.33
2023-03-24T23:50:17.799Z,1.17
2023-03-24T23:52:44.420Z,1.62
2023-03-24T23:55:12.880Z,0.82
2023-03-24T23:57:41.602Z,1.75
